Mayport Ns (Adm David L. Mcdonald Field) Airport
KNRB : now visible

Airfield :











YOU CAN JOIN US ON...

 
LOGIN :

Register | Disclaimer

   EN    FR    IT 

 









Legend :    VFR   Marginal VFR   IFR   Intensive IFR   Very Intensive IFR
Visi :
Ceiling :
>= 8 km
>= 3000ft
5 to 8 km
1000 to 3000 ft
1500m to 5 km
500 to 1000 ft
800 to 1500m
200 to 500 ft
< 800m
< 200 ft
Symbols :   Thunderstorms  Fog  Heavy snow  Heavy precipitations  Wind > 20 kt






- Airport Elevation : 15 ft


KNRB - Mayport Ns (Adm David L. Mcdonald Field)

CURRENT METAR :
  • 041552Z 03005KT 10SM BKN020 BKN250 28/24 A3000 RMK AO2 SLP157 T02830244 $

EXPIRED METARs :
  • 041500Z 03005KT 10SM BKN014 OVC250 29/24 A2999 RMK AO2 T02940244 $
  • 041452Z 03005KT 10SM SCT014 BKN250 29/24 A2999 RMK AO2 SLP155 60000 T02890239 51010
  • 041352Z 26005KT 10SM SCT010 BKN060 BKN250 28/24 A2998 RMK AO2 SLP151 T02780239

TAF TAF KNRB
Valid from the 04 at 15:00 until the 05 at 15:00 UTC


0415/0515 02005KT 9999 VCSH BKN015 BKN080 OVC250 QNH2993INS
FM041800 15010G15KT 9999 VCTS SCT015 BKN035CB BKN100 BKN250 QNH2990INS
TEMPO 0419/0500 VRB25G35KT 2400 +TSRA BKN010 OVC025CB
FM040300 22006KT 9999 VCSH SCT010 BKN020 OVC050 QNH2995INS T31/0419Z T25/0511Z FN20022
KZJX FIR / North America



MET'MAP, your aeronautical weather chart ! - Copyright ORBIFLY December 2007 - Disclaimer

ORBIFLY MET'MAP TEAM :

Programming & Development : Alexandra Zaïnal
Concept & original design : Baudouin d'Aumeries
Assistance for programming : Marc-Olivier Méhu
Technical & hardware support : Manuel Goepfert

Contact : metmap@orbifly.com




SOURCES & CREDITS :

   NOAA       Earth
Advisory